Time;durP1;ratioP1;P1;durP2;ratioP2;P2;SDS_P1;SDS_P2;PMS_P1;PMS_P2;Temp;Humidity;BMP_temperature;BMP_pressure;BME280_temperature;BME280_humidity;BME280_pressure;Samples;Min_cycle;Max_cycle;Signal;HPM_P1;HPM_P2
2021/08/28 00:01:09;;;;;;;9.13;8.20;;;;;;;;;;5112110;28;20106;-57
2021/08/28 00:03:34;;;;;;;9.35;8.32;;;;;;;;;;5111186;28;20420;-57
2021/08/28 00:05:59;;;;;;;6.45;5.85;;;;;;;;;;5112159;28;20076;-57
2021/08/28 00:08:24;;;;;;;6.32;5.72;;;;;;;;;;5112110;28;20045;-56
2021/08/28 00:10:50;;;;;;;6.10;5.60;;;;;;;;;;5111824;28;20019;-55
2021/08/28 00:13:15;;;;;;;5.93;5.43;;;;;;;;;;5111939;28;20031;-55
2021/08/28 00:15:40;;;;;;;4.38;4.07;;;;;;;;;;5111638;28;20019;-57
2021/08/28 00:18:06;;;;;;;4.72;4.32;;;;;;;;;;5105836;28;20012;-57
2021/08/28 00:20:32;;;;;;;3.97;3.67;;;;;;;;;;5092151;28;20024;-57
2021/08/28 00:22:57;;;;;;;3.55;3.25;;;;;;;;;;5103066;28;20032;-54
2021/08/28 00:25:22;;;;;;;3.83;3.40;;;;;;;;;;5112933;28;20019;-56
2021/08/28 00:27:48;;;;;;;3.58;3.28;;;;;;;;;;5118686;28;20043;-56
2021/08/28 00:30:13;;;;;;;3.83;3.53;;;;;;;;;;5119591;28;20169;-54
2021/08/28 00:32:39;;;;;;;2.70;2.47;;;;;;;;;;5118066;28;20385;-54
2021/08/28 00:35:05;;;;;;;3.03;2.72;;;;;;;;;;5118734;28;20034;-55
2021/08/28 00:37:30;;;;;;;2.92;2.63;;;;;;;;;;5118824;28;20023;-56
2021/08/28 00:39:55;;;;;;;2.75;2.55;;;;;;;;;;5118562;28;20158;-54
2021/08/28 00:42:21;;;;;;;3.28;3.08;;;;;;;;;;5118494;28;20472;-55
2021/08/28 00:44:46;;;;;;;4.88;3.33;;;;;;;;;;5118157;28;20020;-55
2021/08/28 00:47:20;;;;;;;3.55;3.33;;;;;;;;;;5117528;28;20096;-56
2021/08/28 00:49:46;;;;;;;3.60;2.60;;;;;;;;;;5118561;28;20055;-56
2021/08/28 00:52:12;;;;;;;4.90;4.50;;;;;;;;;;5117968;28;20027;-55
2021/08/28 00:54:38;;;;;;;5.15;4.65;;;;;;;;;;5118279;28;20092;-56
2021/08/28 00:57:03;;;;;;;5.95;5.45;;;;;;;;;;5118862;28;20090;-52
2021/08/28 00:59:28;;;;;;;6.07;5.57;;;;;;;;;;5118924;28;20045;-55
2021/08/28 01:01:53;;;;;;;6.35;5.63;;;;;;;;;;5118490;28;20031;-56
2021/08/28 01:04:20;;;;;;;7.13;6.35;;;;;;;;;;5118437;28;20047;-56
2021/08/28 01:06:51;;;;;;;6.93;5.38;;;;;;;;;;5104751;28;20073;-55
2021/08/28 01:09:28;;;;;;;6.47;5.88;;;;;;;;;;5118550;28;20438;-57
2021/08/28 01:12:01;;;;;;;7.00;6.40;;;;;;;;;;5117750;27;20163;-56
2021/08/28 01:14:27;;;;;;;6.43;5.82;;;;;;;;;;5118012;28;20114;-55
2021/08/28 01:16:54;;;;;;;6.10;5.53;;;;;;;;;;5118000;28;20026;-55
2021/08/28 01:19:42;;;;;;;8.43;7.63;;;;;;;;;;5117772;28;20016;-53
2021/08/28 01:22:09;;;;;;;8.07;7.38;;;;;;;;;;5095840;28;20035;-55
2021/08/28 01:24:36;;;;;;;7.97;7.20;;;;;;;;;;5118086;28;20035;-55
2021/08/28 01:27:01;;;;;;;8.40;7.70;;;;;;;;;;5118644;28;20072;-56
2021/08/28 01:29:32;;;;;;;8.88;8.07;;;;;;;;;;5118478;28;20051;-55
2021/08/28 01:31:57;;;;;;;8.70;7.90;;;;;;;;;;5095334;28;20076;-57
2021/08/28 01:34:23;;;;;;;8.00;7.30;;;;;;;;;;5118161;28;20011;-57
2021/08/28 01:36:49;;;;;;;9.20;8.02;;;;;;;;;;5116734;28;20466;-54
2021/08/28 01:39:15;;;;;;;9.38;8.57;;;;;;;;;;5114676;28;20100;-56
2021/08/28 01:41:42;;;;;;;10.30;9.25;;;;;;;;;;5114617;28;20020;-57
2021/08/28 01:44:09;;;;;;;9.13;8.35;;;;;;;;;;5114680;28;20045;-54
2021/08/28 01:46:35;;;;;;;9.80;8.98;;;;;;;;;;5114442;28;20481;-57
2021/08/28 01:49:00;;;;;;;12.10;9.30;;;;;;;;;;5114816;28;20077;-56
2021/08/28 01:51:28;;;;;;;10.05;9.25;;;;;;;;;;5114318;28;20034;-56
2021/08/28 01:53:53;;;;;;;10.27;9.38;;;;;;;;;;5114163;28;20029;-56
2021/08/28 01:56:18;;;;;;;10.50;9.52;;;;;;;;;;5113652;28;20019;-55
2021/08/28 01:58:43;;;;;;;10.02;9.13;;;;;;;;;;5114692;28;20046;-55
2021/08/28 02:01:08;;;;;;;10.30;9.40;;;;;;;;;;5115315;28;20072;-56
2021/08/28 02:03:34;;;;;;;11.23;10.23;;;;;;;;;;5114339;28;20466;-56
2021/08/28 02:06:03;;;;;;;10.75;9.70;;;;;;;;;;5114112;28;20032;-54
2021/08/28 02:08:31;;;;;;;11.60;9.75;;;;;;;;;;5114813;28;20020;-55
2021/08/28 02:11:01;;;;;;;10.13;9.23;;;;;;;;;;5114388;28;20102;-56
2021/08/28 02:13:32;;;;;;;9.68;8.88;;;;;;;;;;5114385;28;20166;-54
2021/08/28 02:16:01;;;;;;;10.75;9.75;;;;;;;;;;5114461;28;20485;-56
2021/08/28 02:18:32;;;;;;;10.20;9.20;;;;;;;;;;5107215;28;20483;-57
2021/08/28 02:20:59;;;;;;;10.25;9.25;;;;;;;;;;5112022;28;20114;-56
2021/08/28 02:23:43;;;;;;;9.20;8.40;;;;;;;;;;5113719;28;20038;-55
2021/08/28 02:26:09;;;;;;;10.00;9.00;;;;;;;;;;5113859;28;20046;-56
2021/08/28 02:28:43;;;;;;;10.93;10.02;;;;;;;;;;5114064;28;20070;-57
2021/08/28 02:31:09;;;;;;;10.30;9.30;;;;;;;;;;5114175;28;20083;-57
2021/08/28 02:33:35;;;;;;;10.80;9.80;;;;;;;;;;5113641;28;20016;-55
2021/08/28 02:36:00;;;;;;;11.82;10.65;;;;;;;;;;5113814;28;20023;-56
2021/08/28 02:38:26;;;;;;;11.55;10.38;;;;;;;;;;5113990;28;20023;-56
2021/08/28 02:40:54;;;;;;;11.77;10.68;;;;;;;;;;5113925;28;20015;-56
2021/08/28 02:43:19;;;;;;;12.02;10.93;;;;;;;;;;5113155;28;20470;-54
2021/08/28 02:45:47;;;;;;;10.75;9.80;;;;;;;;;;5113911;28;20072;-57
2021/08/28 02:48:17;;;;;;;10.50;9.60;;;;;;;;;;5113166;28;20102;-54
2021/08/28 02:50:42;;;;;;;9.07;8.27;;;;;;;;;;5115733;27;20072;-55
2021/08/28 02:53:10;;;;;;;10.63;9.63;;;;;;;;;;5120173;27;20024;-56
2021/08/28 02:55:36;;;;;;;11.43;10.32;;;;;;;;;;5127081;27;20509;-57
2021/08/28 02:58:02;;;;;;;10.00;9.10;;;;;;;;;;5113763;28;20031;-54
2021/08/28 03:00:28;;;;;;;10.52;9.57;;;;;;;;;;5113439;28;20023;-56
2021/08/28 03:02:53;;;;;;;10.38;9.30;;;;;;;;;;5112783;28;20031;-56
2021/08/28 03:05:19;;;;;;;11.05;10.05;;;;;;;;;;5113605;28;20024;-56
2021/08/28 03:07:45;;;;;;;10.30;9.40;;;;;;;;;;5113226;28;20034;-54
2021/08/28 03:10:11;;;;;;;10.10;9.13;;;;;;;;;;5112923;28;20046;-56
2021/08/28 03:12:37;;;;;;;10.18;9.25;;;;;;;;;;5113035;28;20020;-55
2021/08/28 03:15:02;;;;;;;11.38;10.18;;;;;;;;;;5113186;28;20089;-56
2021/08/28 03:17:28;;;;;;;11.55;10.45;;;;;;;;;;5112444;28;20607;-55
2021/08/28 03:19:54;;;;;;;11.75;10.55;;;;;;;;;;5112788;28;20062;-57
2021/08/28 03:22:21;;;;;;;10.77;9.68;;;;;;;;;;5112528;28;20046;-57
2021/08/28 03:24:47;;;;;;;10.93;9.82;;;;;;;;;;5112908;28;20030;-56
2021/08/28 03:27:14;;;;;;;11.32;10.13;;;;;;;;;;5112280;28;20363;-56
2021/08/28 03:29:40;;;;;;;11.15;10.05;;;;;;;;;;5113553;28;20024;-54
2021/08/28 03:32:05;;;;;;;12.13;10.80;;;;;;;;;;5112874;28;20015;-54
2021/08/28 03:34:32;;;;;;;12.13;10.82;;;;;;;;;;5112546;28;20088;-57
2021/08/28 03:36:57;;;;;;;12.82;11.52;;;;;;;;;;5112691;28;20027;-55
2021/08/28 03:39:23;;;;;;;12.38;11.18;;;;;;;;;;5112150;28;20015;-57
2021/08/28 03:41:48;;;;;;;12.07;10.90;;;;;;;;;;5112101;28;20072;-58
2021/08/28 03:44:14;;;;;;;12.80;11.60;;;;;;;;;;5112718;28;20440;-55
2021/08/28 03:46:40;;;;;;;13.30;11.57;;;;;;;;;;5112657;28;20023;-55
2021/08/28 03:49:05;;;;;;;13.25;11.05;;;;;;;;;;5111544;28;20088;-55
2021/08/28 03:51:31;;;;;;;15.70;12.90;;;;;;;;;;5112051;28;20466;-56
2021/08/28 03:53:56;;;;;;;13.80;12.30;;;;;;;;;;5111945;28;20023;-56
2021/08/28 03:56:21;;;;;;;12.38;11.07;;;;;;;;;;5112318;28;20053;-55
2021/08/28 03:58:46;;;;;;;13.20;11.90;;;;;;;;;;5094080;28;20023;-54
2021/08/28 04:01:11;;;;;;;13.45;11.40;;;;;;;;;;5111750;28;20076;-55
2021/08/28 04:03:37;;;;;;;15.13;12.70;;;;;;;;;;5111674;28;20027;-56
2021/08/28 04:06:02;;;;;;;14.35;12.73;;;;;;;;;;5112010;28;20030;-57
2021/08/28 04:08:27;;;;;;;13.45;12.07;;;;;;;;;;5111903;28;20036;-57
2021/08/28 04:10:52;;;;;;;13.90;12.38;;;;;;;;;;5111893;28;20110;-55
2021/08/28 04:13:17;;;;;;;15.80;13.75;;;;;;;;;;5111735;28;20031;-57
2021/08/28 04:15:43;;;;;;;14.38;12.68;;;;;;;;;;5112312;28;20020;-57
2021/08/28 04:18:08;;;;;;;16.15;13.93;;;;;;;;;;5111701;28;20076;-56
2021/08/28 04:20:33;;;;;;;13.55;12.07;;;;;;;;;;5111838;28;20024;-57
2021/08/28 04:22:59;;;;;;;13.98;12.50;;;;;;;;;;5112102;28;20032;-54
2021/08/28 04:25:25;;;;;;;13.88;11.63;;;;;;;;;;5111942;28;20124;-55
2021/08/28 04:27:50;;;;;;;17.33;14.40;;;;;;;;;;5111792;28;20044;-57
2021/08/28 04:30:15;;;;;;;13.18;11.77;;;;;;;;;;5111899;28;20030;-54
2021/08/28 04:32:40;;;;;;;13.27;11.98;;;;;;;;;;5111612;28;20011;-57
2021/08/28 04:35:06;;;;;;;14.32;12.15;;;;;;;;;;5111606;28;20031;-56
2021/08/28 04:37:31;;;;;;;13.00;11.80;;;;;;;;;;5112150;28;20027;-55
2021/08/28 04:39:56;;;;;;;12.38;11.15;;;;;;;;;;5111634;28;20019;-52
2021/08/28 04:42:21;;;;;;;15.00;12.32;;;;;;;;;;5111867;28;20149;-56
2021/08/28 04:44:47;;;;;;;13.50;12.10;;;;;;;;;;5111380;28;20118;-56
2021/08/28 04:47:12;;;;;;;12.98;11.68;;;;;;;;;;5111977;28;20478;-55
2021/08/28 04:49:37;;;;;;;13.50;12.07;;;;;;;;;;5111739;28;20038;-56
2021/08/28 04:52:02;;;;;;;19.23;15.05;;;;;;;;;;5111335;28;20026;-54
2021/08/28 04:54:28;;;;;;;29.42;23.02;;;;;;;;;;5111081;28;20016;-56
2021/08/28 04:56:53;;;;;;;24.35;19.40;;;;;;;;;;5111786;28;20355;-54
2021/08/28 04:59:18;;;;;;;28.77;21.10;;;;;;;;;;5112145;28;20042;-55
2021/08/28 05:01:44;;;;;;;15.77;13.73;;;;;;;;;;5111557;28;20027;-55
2021/08/28 05:04:09;;;;;;;13.35;12.05;;;;;;;;;;5110356;28;20026;-56
2021/08/28 05:06:34;;;;;;;12.85;11.55;;;;;;;;;;5110485;28;20373;-54
2021/08/28 05:08:59;;;;;;;13.32;11.65;;;;;;;;;;5111269;28;20049;-54
2021/08/28 05:11:25;;;;;;;12.85;11.55;;;;;;;;;;5111669;28;20369;-54
2021/08/28 05:13:50;;;;;;;15.57;12.48;;;;;;;;;;5113908;28;20024;-55
2021/08/28 05:16:15;;;;;;;14.15;12.15;;;;;;;;;;5115479;28;20016;-54
2021/08/28 05:18:40;;;;;;;13.88;11.88;;;;;;;;;;5115193;28;20012;-57
2021/08/28 05:21:05;;;;;;;15.13;12.07;;;;;;;;;;5115264;28;20019;-53
2021/08/28 05:23:31;;;;;;;15.93;13.40;;;;;;;;;;5114602;28;20363;-57
2021/08/28 05:25:56;;;;;;;15.88;12.65;;;;;;;;;;5115242;28;20103;-56
2021/08/28 05:28:21;;;;;;;15.18;13.55;;;;;;;;;;5115286;28;20058;-56
2021/08/28 05:30:46;;;;;;;15.73;12.80;;;;;;;;;;5115056;28;20020;-57
2021/08/28 05:33:14;;;;;;;16.25;13.73;;;;;;;;;;5114445;28;20470;-58
2021/08/28 05:35:39;;;;;;;17.10;14.00;;;;;;;;;;5113577;28;20015;-55
2021/08/28 05:38:04;;;;;;;18.13;15.65;;;;;;;;;;5114726;28;20466;-53
2021/08/28 05:40:30;;;;;;;15.35;13.57;;;;;;;;;;5114540;28;20027;-57
2021/08/28 05:42:55;;;;;;;15.02;13.43;;;;;;;;;;5114553;28;20035;-57
2021/08/28 05:45:20;;;;;;;13.07;11.77;;;;;;;;;;5115395;28;20051;-58
2021/08/28 05:47:45;;;;;;;10.70;9.18;;;;;;;;;;5113510;28;20051;-56
2021/08/28 05:50:10;;;;;;;10.15;9.15;;;;;;;;;;5104400;28;20020;-55
2021/08/28 05:52:36;;;;;;;9.15;8.32;;;;;;;;;;5114426;28;20028;-56
2021/08/28 05:55:01;;;;;;;7.97;7.18;;;;;;;;;;5114051;28;20051;-56
2021/08/28 05:57:38;;;;;;;3.80;2.97;;;;;;;;;;5109776;28;20019;-56
2021/08/28 06:00:05;;;;;;;3.75;3.45;;;;;;;;;;5108641;28;20024;-56
2021/08/28 06:02:30;;;;;;;2.70;2.50;;;;;;;;;;5111688;28;20026;-55
2021/08/28 06:04:55;;;;;;;2.55;2.30;;;;;;;;;;5104009;28;20024;-58
2021/08/28 06:07:20;;;;;;;1.58;1.48;;;;;;;;;;5113266;28;20393;-59
2021/08/28 06:09:46;;;;;;;0.93;0.85;;;;;;;;;;5096366;28;20016;-59
2021/08/28 06:12:11;;;;;;;0.60;0.60;;;;;;;;;;5114385;28;20043;-58
2021/08/28 06:14:36;;;;;;;0.70;0.70;;;;;;;;;;5114293;28;20050;-57
2021/08/28 06:17:01;;;;;;;0.60;0.40;;;;;;;;;;5113058;28;20079;-57
2021/08/28 06:19:27;;;;;;;0.20;0.20;;;;;;;;;;5105836;28;20020;-59
2021/08/28 06:21:52;;;;;;;0.75;0.28;;;;;;;;;;5097366;28;20028;-58
2021/08/28 06:24:17;;;;;;;0.88;0.30;;;;;;;;;;5112541;28;20040;-58
2021/08/28 06:26:42;;;;;;;0.30;0.20;;;;;;;;;;5110638;27;20038;-59
2021/08/28 06:29:07;;;;;;;0.17;0.10;;;;;;;;;;5113307;28;20059;-57
2021/08/28 06:31:34;;;;;;;0.20;0.13;;;;;;;;;;5113063;28;20563;-58
2021/08/28 06:33:59;;;;;;;0.90;0.20;;;;;;;;;;5106770;28;20040;-57
2021/08/28 06:36:24;;;;;;;0.30;0.20;;;;;;;;;;5110973;28;20485;-58
2021/08/28 06:38:49;;;;;;;1.48;0.20;;;;;;;;;;5113162;28;20019;-58
2021/08/28 06:41:14;;;;;;;0.98;0.25;;;;;;;;;;5113628;28;20067;-57
2021/08/28 06:43:40;;;;;;;1.05;0.40;;;;;;;;;;5113713;28;20035;-58
2021/08/28 06:46:05;;;;;;;0.40;0.20;;;;;;;;;;5113331;28;20043;-57
2021/08/28 06:48:32;;;;;;;0.50;0.20;;;;;;;;;;5111411;28;20049;-58
2021/08/28 06:50:57;;;;;;;1.90;0.20;;;;;;;;;;5110494;28;20031;-58
2021/08/28 06:53:22;;;;;;;0.80;0.20;;;;;;;;;;5091904;28;20475;-58
2021/08/28 06:55:47;;;;;;;0.30;0.20;;;;;;;;;;5107024;28;20061;-58
2021/08/28 06:58:13;;;;;;;0.20;0.10;;;;;;;;;;5111013;28;20016;-58
2021/08/28 07:00:38;;;;;;;0.38;0.15;;;;;;;;;;5113096;28;20131;-59
2021/08/28 07:03:03;;;;;;;0.10;0.10;;;;;;;;;;5109647;28;20031;-58
2021/08/28 07:05:28;;;;;;;0.10;0.10;;;;;;;;;;5113091;28;20024;-57
2021/08/28 07:07:53;;;;;;;0.10;0.10;;;;;;;;;;5109648;28;20044;-58
2021/08/28 07:10:19;;;;;;;0.20;0.10;;;;;;;;;;5113144;28;20034;-57
2021/08/28 07:12:44;;;;;;;1.02;0.10;;;;;;;;;;5113506;28;20031;-58
2021/08/28 07:15:10;;;;;;;0.00;0.00;;;;;;;;;;5112990;28;20086;-58
2021/08/28 07:17:35;;;;;;;1.02;0.10;;;;;;;;;;5112493;28;20019;-58
2021/08/28 07:20:00;;;;;;;1.95;0.10;;;;;;;;;;5113277;28;20108;-59
2021/08/28 07:22:26;;;;;;;0.20;0.10;;;;;;;;;;5112636;28;20022;-58
2021/08/28 07:24:51;;;;;;;0.10;0.10;;;;;;;;;;5113252;28;20022;-57
2021/08/28 07:27:17;;;;;;;0.20;0.15;;;;;;;;;;5112741;28;20019;-58
2021/08/28 07:29:42;;;;;;;0.45;0.20;;;;;;;;;;5112645;28;20027;-59
2021/08/28 07:32:08;;;;;;;1.05;0.20;;;;;;;;;;5094737;28;20035;-58
2021/08/28 07:34:36;;;;;;;0.93;0.20;;;;;;;;;;5112379;28;20015;-59
2021/08/28 07:37:02;;;;;;;0.40;0.28;;;;;;;;;;5112267;28;20019;-58
2021/08/28 07:39:27;;;;;;;6.47;2.17;;;;;;;;;;5112661;28;20014;-58
2021/08/28 07:41:52;;;;;;;5.47;2.80;;;;;;;;;;5112459;28;20363;-58
2021/08/28 07:44:17;;;;;;;3.20;1.83;;;;;;;;;;5112708;28;20114;-59
2021/08/28 07:46:45;;;;;;;2.85;0.90;;;;;;;;;;5112493;28;20044;-56
2021/08/28 07:49:10;;;;;;;0.25;0.20;;;;;;;;;;5111859;28;20023;-59
2021/08/28 07:51:35;;;;;;;0.10;0.10;;;;;;;;;;5112476;28;20603;-57
2021/08/28 07:54:00;;;;;;;0.85;0.17;;;;;;;;;;5112151;28;20020;-57
2021/08/28 07:56:25;;;;;;;0.17;0.10;;;;;;;;;;5112840;28;20015;-58
2021/08/28 07:58:50;;;;;;;0.03;0.03;;;;;;;;;;5112066;28;20023;-58
2021/08/28 08:01:16;;;;;;;0.20;0.10;;;;;;;;;;5112449;28;20539;-59
2021/08/28 08:03:41;;;;;;;0.20;0.10;;;;;;;;;;5112236;28;20042;-58
2021/08/28 08:06:06;;;;;;;0.40;0.20;;;;;;;;;;5112387;28;20027;-57
2021/08/28 08:08:31;;;;;;;0.25;0.10;;;;;;;;;;5111745;28;20019;-57
2021/08/28 08:10:57;;;;;;;0.22;0.10;;;;;;;;;;5112130;28;20035;-58
2021/08/28 08:13:22;;;;;;;0.15;0.10;;;;;;;;;;5112052;28;20077;-57
2021/08/28 08:15:47;;;;;;;0.30;0.10;;;;;;;;;;5093685;28;20035;-57
2021/08/28 08:18:12;;;;;;;0.10;0.05;;;;;;;;;;5103086;28;20023;-60
2021/08/28 08:20:37;;;;;;;0.20;0.00;;;;;;;;;;5132355;27;20093;-59
2021/08/28 08:23:03;;;;;;;0.10;0.10;;;;;;;;;;5125850;27;20032;-58
2021/08/28 08:25:28;;;;;;;0.10;0.00;;;;;;;;;;5112505;28;20091;-58
2021/08/28 08:27:54;;;;;;;0.03;0.00;;;;;;;;;;5111953;28;20494;-58
2021/08/28 08:30:19;;;;;;;0.10;0.05;;;;;;;;;;5112413;28;20024;-57
2021/08/28 08:32:44;;;;;;;0.22;0.00;;;;;;;;;;5110521;28;20466;-58
2021/08/28 08:35:09;;;;;;;0.10;0.03;;;;;;;;;;5107625;28;20145;-58
2021/08/28 08:37:35;;;;;;;0.85;0.00;;;;;;;;;;5111817;28;20051;-59
2021/08/28 08:40:00;;;;;;;0.10;0.00;;;;;;;;;;5111774;28;20030;-57
2021/08/28 08:42:26;;;;;;;0.35;0.17;;;;;;;;;;5111150;28;20031;-57
2021/08/28 08:44:52;;;;;;;0.40;0.10;;;;;;;;;;5105649;28;20024;-58
2021/08/28 08:47:18;;;;;;;0.40;0.10;;;;;;;;;;5107065;28;20020;-59
2021/08/28 08:49:43;;;;;;;0.05;0.05;;;;;;;;;;5115193;28;20415;-58
2021/08/28 08:52:08;;;;;;;0.10;0.10;;;;;;;;;;5115295;28;20102;-58
2021/08/28 08:54:35;;;;;;;0.30;0.00;;;;;;;;;;5115501;28;20023;-59
2021/08/28 08:57:00;;;;;;;0.10;0.10;;;;;;;;;;5115498;28;20043;-59
2021/08/28 08:59:25;;;;;;;0.10;0.10;;;;;;;;;;5114531;28;20446;-59
2021/08/28 09:01:50;;;;;;;0.10;0.10;;;;;;;;;;5115703;28;20077;-59
2021/08/28 09:04:16;;;;;;;0.10;0.10;;;;;;;;;;5115006;28;20474;-58
2021/08/28 09:06:46;;;;;;;0.10;0.10;;;;;;;;;;5108631;28;20072;-58
2021/08/28 09:09:11;;;;;;;0.20;0.10;;;;;;;;;;5115513;28;20035;-57
2021/08/28 09:11:36;;;;;;;0.10;0.10;;;;;;;;;;5115397;28;20023;-56
2021/08/28 09:14:14;;;;;;;0.20;0.10;;;;;;;;;;5114588;28;20020;-58
2021/08/28 09:16:39;;;;;;;0.20;0.15;;;;;;;;;;5114819;28;20462;-57
2021/08/28 09:19:04;;;;;;;1.05;0.10;;;;;;;;;;5114542;28;20035;-58
2021/08/28 09:21:33;;;;;;;0.10;0.10;;;;;;;;;;5115218;28;20061;-58
2021/08/28 09:24:00;;;;;;;0.45;0.10;;;;;;;;;;5114836;28;20127;-56
2021/08/28 09:26:26;;;;;;;0.00;0.00;;;;;;;;;;5114865;28;20024;-58
2021/08/28 09:28:52;;;;;;;0.00;0.00;;;;;;;;;;5114483;28;20042;-58
2021/08/28 09:31:34;;;;;;;0.10;0.10;;;;;;;;;;5114824;28;20095;-56
2021/08/28 09:34:16;;;;;;;0.10;0.08;;;;;;;;;;5114876;28;20043;-59
2021/08/28 09:36:41;;;;;;;0.08;0.05;;;;;;;;;;5115135;28;20016;-58
2021/08/28 09:39:06;;;;;;;1.30;0.10;;;;;;;;;;5115087;28;20083;-59
2021/08/28 09:41:32;;;;;;;0.28;0.28;;;;;;;;;;5112915;28;20103;-58
2021/08/28 09:44:07;;;;;;;0.10;0.10;;;;;;;;;;5103195;28;20028;-58
2021/08/28 09:46:33;;;;;;;0.20;0.10;;;;;;;;;;5114856;28;20122;-58
2021/08/28 09:48:59;;;;;;;0.10;0.10;;;;;;;;;;5114396;28;20448;-58
2021/08/28 09:51:24;;;;;;;0.30;0.20;;;;;;;;;;5114928;28;20015;-57
2021/08/28 09:53:58;;;;;;;0.68;0.10;;;;;;;;;;5114697;28;20069;-57
2021/08/28 09:56:25;;;;;;;0.20;0.10;;;;;;;;;;5112487;28;20266;-58
2021/08/28 09:58:50;;;;;;;0.30;0.10;;;;;;;;;;5111975;28;20084;-56
2021/08/28 10:01:19;;;;;;;0.20;0.20;;;;;;;;;;5114590;28;20582;-57
2021/08/28 10:03:56;;;;;;;0.22;0.20;;;;;;;;;;5114162;28;20024;-57
2021/08/28 10:06:21;;;;;;;0.95;0.30;;;;;;;;;;5114475;27;20012;-56
2021/08/28 10:08:46;;;;;;;0.25;0.20;;;;;;;;;;5114363;28;20496;-59
2021/08/28 10:11:11;;;;;;;0.20;0.20;;;;;;;;;;5114485;28;20479;-56
2021/08/28 10:13:37;;;;;;;0.30;0.30;;;;;;;;;;5109493;28;20473;-54
2021/08/28 10:16:02;;;;;;;0.20;0.20;;;;;;;;;;5096218;28;20027;-58
2021/08/28 10:18:28;;;;;;;0.20;0.20;;;;;;;;;;5113538;28;20465;-58
2021/08/28 10:20:55;;;;;;;0.20;0.20;;;;;;;;;;5114383;28;20864;-57
2021/08/28 10:23:22;;;;;;;0.25;0.20;;;;;;;;;;5113610;28;20043;-58
2021/08/28 10:25:47;;;;;;;0.32;0.25;;;;;;;;;;5114169;28;20493;-57
2021/08/28 10:28:13;;;;;;;0.20;0.20;;;;;;;;;;5113295;28;20048;-59
2021/08/28 10:30:38;;;;;;;0.28;0.20;;;;;;;;;;5112588;28;20023;-58
2021/08/28 10:33:03;;;;;;;0.80;0.32;;;;;;;;;;5112570;28;20249;-59
2021/08/28 10:35:29;;;;;;;0.20;0.20;;;;;;;;;;5113136;28;20012;-60
2021/08/28 10:37:54;;;;;;;1.40;0.50;;;;;;;;;;5114094;27;20379;-59
2021/08/28 10:40:24;;;;;;;0.93;0.30;;;;;;;;;;5108122;28;20062;-59
2021/08/28 10:42:51;;;;;;;0.73;0.63;;;;;;;;;;5112640;28;20020;-58
2021/08/28 10:45:23;;;;;;;0.50;0.50;;;;;;;;;;5108728;28;20098;-59
2021/08/28 10:47:55;;;;;;;0.90;0.70;;;;;;;;;;5112397;28;20505;-59
2021/08/28 10:50:20;;;;;;;0.50;0.32;;;;;;;;;;5106516;28;20478;-58
2021/08/28 10:52:49;;;;;;;1.23;0.73;;;;;;;;;;5111524;28;20153;-58
2021/08/28 10:55:15;;;;;;;0.60;0.40;;;;;;;;;;5113408;28;20016;-57
2021/08/28 10:57:40;;;;;;;0.30;0.10;;;;;;;;;;5112632;28;20030;-58
2021/08/28 11:00:10;;;;;;;1.15;0.50;;;;;;;;;;5109148;28;20072;-58
2021/08/28 11:02:54;;;;;;;0.60;0.35;;;;;;;;;;5113308;28;20024;-57
2021/08/28 11:05:20;;;;;;;1.77;0.70;;;;;;;;;;5107639;28;20517;-57
2021/08/28 11:07:45;;;;;;;1.02;0.40;;;;;;;;;;5107522;28;20537;-58
2021/08/28 11:10:12;;;;;;;0.25;0.13;;;;;;;;;;5110593;28;20125;-58
2021/08/28 11:12:57;;;;;;;0.70;0.40;;;;;;;;;;5112066;28;20042;-58
2021/08/28 11:15:35;;;;;;;0.93;0.57;;;;;;;;;;5112886;28;20035;-58
2021/08/28 11:18:03;;;;;;;1.58;0.80;;;;;;;;;;5111800;28;20018;-59
2021/08/28 11:20:39;;;;;;;0.20;0.20;;;;;;;;;;5113278;28;20388;-58
2021/08/28 11:23:05;;;;;;;0.55;0.40;;;;;;;;;;5094430;28;20027;-59
2021/08/28 11:25:31;;;;;;;0.13;0.10;;;;;;;;;;5112906;28;20077;-57
2021/08/28 11:27:57;;;;;;;0.22;0.20;;;;;;;;;;5091378;28;20051;-59
2021/08/28 11:30:41;;;;;;;0.40;0.20;;;;;;;;;;5108427;28;20432;-59
2021/08/28 11:33:29;;;;;;;0.45;0.30;;;;;;;;;;5112177;28;20110;-58
2021/08/28 11:35:59;;;;;;;0.60;0.40;;;;;;;;;;5084037;28;20039;-58
2021/08/28 11:38:33;;;;;;;1.25;0.20;;;;;;;;;;5102731;28;20049;-57
2021/08/28 11:41:01;;;;;;;0.52;0.10;;;;;;;;;;5110777;28;20081;-58
2021/08/28 11:43:30;;;;;;;0.10;0.10;;;;;;;;;;5103111;28;20055;-58
2021/08/28 11:45:59;;;;;;;0.10;0.10;;;;;;;;;;5112542;28;20076;-58
2021/08/28 11:48:24;;;;;;;0.30;0.10;;;;;;;;;;5083493;28;20057;-57
2021/08/28 11:50:51;;;;;;;0.30;0.10;;;;;;;;;;5112870;28;20051;-58
2021/08/28 11:53:24;;;;;;;0.35;0.10;;;;;;;;;;5111945;28;20027;-59
2021/08/28 11:55:49;;;;;;;0.80;0.10;;;;;;;;;;5112476;28;20394;-59
2021/08/28 11:58:14;;;;;;;0.10;0.10;;;;;;;;;;5111947;28;20026;-55
2021/08/28 12:00:40;;;;;;;0.20;0.20;;;;;;;;;;5111430;28;20260;-58
2021/08/28 12:03:06;;;;;;;0.10;0.10;;;;;;;;;;5111476;28;20019;-59
2021/08/28 12:05:31;;;;;;;0.25;0.10;;;;;;;;;;5111998;28;20015;-58
2021/08/28 12:07:57;;;;;;;0.32;0.20;;;;;;;;;;5111941;28;20030;-58
2021/08/28 12:10:22;;;;;;;0.40;0.10;;;;;;;;;;5111243;28;20026;-58
2021/08/28 12:12:58;;;;;;;0.20;0.20;;;;;;;;;;5111522;28;20300;-57
2021/08/28 12:15:24;;;;;;;0.10;0.10;;;;;;;;;;5111945;28;20012;-58
2021/08/28 12:17:50;;;;;;;0.10;0.10;;;;;;;;;;5111787;28;20019;-57
2021/08/28 12:20:23;;;;;;;1.17;0.10;;;;;;;;;;5111357;28;20543;-59
2021/08/28 12:22:48;;;;;;;1.15;0.20;;;;;;;;;;5105784;28;20027;-59
2021/08/28 12:25:14;;;;;;;0.30;0.30;;;;;;;;;;5111607;28;20019;-58
2021/08/28 12:27:39;;;;;;;0.75;0.28;;;;;;;;;;5111384;28;20328;-57
2021/08/28 12:30:05;;;;;;;0.20;0.20;;;;;;;;;;5111778;28;20031;-58
2021/08/28 12:32:31;;;;;;;0.30;0.30;;;;;;;;;;5107042;28;20016;-58
2021/08/28 12:34:56;;;;;;;0.30;0.30;;;;;;;;;;5111671;28;20033;-58
2021/08/28 12:37:23;;;;;;;0.50;0.40;;;;;;;;;;5111981;28;20050;-59
2021/08/28 12:39:49;;;;;;;0.30;0.30;;;;;;;;;;5111495;28;20108;-59
2021/08/28 12:42:16;;;;;;;0.93;0.22;;;;;;;;;;5111361;28;20039;-56
2021/08/28 12:44:45;;;;;;;1.35;0.57;;;;;;;;;;5103406;28;20072;-59
2021/08/28 12:47:11;;;;;;;0.88;0.30;;;;;;;;;;5111845;28;20027;-58
2021/08/28 12:49:36;;;;;;;0.40;0.40;;;;;;;;;;5111282;28;20062;-58
2021/08/28 12:52:20;;;;;;;0.40;0.40;;;;;;;;;;5110953;28;20059;-58
2021/08/28 12:54:49;;;;;;;0.57;0.57;;;;;;;;;;5111534;28;20059;-58
2021/08/28 12:57:31;;;;;;;0.70;0.45;;;;;;;;;;5111439;28;20423;-58
2021/08/28 12:59:57;;;;;;;0.95;0.50;;;;;;;;;;5111281;28;20347;-60
2021/08/28 13:02:22;;;;;;;0.95;0.40;;;;;;;;;;5108024;28;20035;-58
2021/08/28 13:04:48;;;;;;;0.50;0.50;;;;;;;;;;5111256;28;20028;-59
2021/08/28 13:07:13;;;;;;;0.55;0.50;;;;;;;;;;5111029;28;20272;-58
2021/08/28 13:09:50;;;;;;;0.60;0.60;;;;;;;;;;5111111;28;20024;-58
2021/08/28 13:12:16;;;;;;;0.47;0.40;;;;;;;;;;5109894;28;20134;-59
2021/08/28 13:14:48;;;;;;;0.60;0.40;;;;;;;;;;5110437;28;20102;-59
2021/08/28 13:17:13;;;;;;;0.45;0.45;;;;;;;;;;5111965;28;20022;-59
2021/08/28 13:19:38;;;;;;;0.30;0.30;;;;;;;;;;5110716;28;20015;-59
2021/08/28 13:22:04;;;;;;;0.30;0.30;;;;;;;;;;5111079;28;20280;-59
2021/08/28 13:24:29;;;;;;;0.32;0.30;;;;;;;;;;5111189;28;20039;-58
2021/08/28 13:27:00;;;;;;;0.30;0.23;;;;;;;;;;5111126;28;20025;-57
2021/08/28 13:29:29;;;;;;;0.57;0.40;;;;;;;;;;5110982;28;20677;-58
2021/08/28 13:32:07;;;;;;;1.15;0.40;;;;;;;;;;5083071;28;20027;-59
2021/08/28 13:34:39;;;;;;;0.60;0.50;;;;;;;;;;5113110;28;20018;-58
2021/08/28 13:37:05;;;;;;;0.50;0.30;;;;;;;;;;5114870;28;20023;-59
2021/08/28 13:39:31;;;;;;;0.40;0.32;;;;;;;;;;5106432;28;20505;-59
2021/08/28 13:41:56;;;;;;;0.38;0.30;;;;;;;;;;5094314;28;20020;-58
2021/08/28 13:44:21;;;;;;;0.75;0.40;;;;;;;;;;5102671;28;20015;-59
2021/08/28 13:46:46;;;;;;;0.40;0.30;;;;;;;;;;5114035;28;20036;-58
2021/08/28 13:49:12;;;;;;;0.40;0.30;;;;;;;;;;5114363;28;20273;-58
2021/08/28 13:51:37;;;;;;;0.65;0.40;;;;;;;;;;5109091;28;20016;-59
2021/08/28 13:54:02;;;;;;;0.40;0.40;;;;;;;;;;5102082;27;20163;-58
2021/08/28 13:56:28;;;;;;;0.73;0.30;;;;;;;;;;5099599;28;20020;-59
2021/08/28 13:58:53;;;;;;;0.60;0.40;;;;;;;;;;5114644;28;20736;-58
2021/08/28 14:01:19;;;;;;;0.40;0.40;;;;;;;;;;5092649;28;20069;-59
2021/08/28 14:03:44;;;;;;;0.57;0.53;;;;;;;;;;5113951;28;20407;-59
2021/08/28 14:06:09;;;;;;;0.95;0.77;;;;;;;;;;5114588;28;20378;-59
2021/08/28 14:08:34;;;;;;;0.50;0.50;;;;;;;;;;5113657;28;20474;-59
2021/08/28 14:10:59;;;;;;;1.77;0.40;;;;;;;;;;5114398;28;20281;-59
2021/08/28 14:13:25;;;;;;;0.40;0.40;;;;;;;;;;5113899;28;20284;-57
2021/08/28 14:15:50;;;;;;;0.57;0.40;;;;;;;;;;5114043;28;20113;-59
2021/08/28 14:18:15;;;;;;;0.70;0.70;;;;;;;;;;5113331;28;20253;-59
2021/08/28 14:20:40;;;;;;;0.50;0.40;;;;;;;;;;5114277;28;20296;-59
2021/08/28 14:23:05;;;;;;;0.87;0.40;;;;;;;;;;5114112;28;20624;-59
2021/08/28 14:25:31;;;;;;;0.90;0.40;;;;;;;;;;5094192;28;20786;-59
2021/08/28 14:27:57;;;;;;;0.70;0.60;;;;;;;;;;5113750;28;20296;-58
2021/08/28 14:30:22;;;;;;;0.50;0.50;;;;;;;;;;5114237;28;20063;-58
2021/08/28 14:32:47;;;;;;;1.17;0.50;;;;;;;;;;5113719;28;20283;-59